Time;durP1;ratioP1;P1;durP2;ratioP2;P2;SDS_P1;SDS_P2;PMS_P1;PMS_P2;Temp;Humidity;BMP_temperature;BMP_pressure;BME280_temperature;BME280_humidity;BME280_pressure;Samples;Min_cycle;Max_cycle;Signal;HPM_P1;HPM_P2
2021/08/20 00:00:40;;;;;;;;;5.50;5.25;;;;;18.00;62.69;100945.72;5017238;28;45277;-60
2021/08/20 00:03:05;;;;;;;;;7.25;5.25;;;;;17.99;62.87;100945.88;5016994;28;45657;-61
2021/08/20 00:05:31;;;;;;;;;5.00;5.00;;;;;17.99;62.75;100943.22;5017458;28;46069;-61
2021/08/20 00:07:56;;;;;;;;;6.50;6.50;;;;;17.98;62.89;100941.56;5016419;28;67023;-62
2021/08/20 00:10:21;;;;;;;;;7.00;5.25;;;;;17.98;62.76;100944.22;5016333;28;68417;-61
2021/08/20 00:12:47;;;;;;;;;4.00;3.00;;;;;17.97;62.91;100942.56;5017194;28;45515;-62
2021/08/20 00:15:12;;;;;;;;;4.25;4.00;;;;;17.97;62.91;100948.69;5016048;28;63123;-59
2021/08/20 00:17:37;;;;;;;;;5.00;5.00;;;;;17.99;63.01;100936.09;5017139;28;45490;-60
2021/08/20 00:20:03;;;;;;;;;9.00;8.00;;;;;17.99;62.71;100938.75;5017009;28;45793;-59
2021/08/20 00:22:29;;;;;;;;;12.00;11.50;;;;;18.00;62.71;100942.25;5017035;28;45902;-61
2021/08/20 00:24:54;;;;;;;;;11.75;10.00;;;;;18.01;62.84;100941.25;5016080;28;66855;-59
2021/08/20 00:27:20;;;;;;;;;9.75;9.25;;;;;18.02;63.10;100938.38;5016058;28;68241;-61
2021/08/20 00:29:45;;;;;;;;;8.25;8.00;;;;;18.04;62.78;100932.88;5015882;28;75557;-61
2021/08/20 00:32:10;;;;;;;;;7.75;7.00;;;;;18.05;62.68;100934.53;5015944;28;71980;-60
2021/08/20 00:34:36;;;;;;;;;6.75;5.50;;;;;18.06;62.58;100938.84;5016999;28;45937;-61
2021/08/20 00:37:01;;;;;;;;;7.00;5.75;;;;;18.05;62.82;100942.50;5016900;28;45522;-61
2021/08/20 00:39:26;;;;;;;;;8.75;6.00;;;;;18.04;62.91;100939.03;5016186;28;63038;-60
2021/08/20 00:41:52;;;;;;;;;7.50;5.25;;;;;18.04;62.89;100943.50;5015826;28;72419;-61
2021/08/20 00:44:18;;;;;;;;;5.00;4.75;;;;;18.02;62.83;100940.22;5016653;28;45658;-60
2021/08/20 00:46:43;;;;;;;;;4.00;3.75;;;;;18.00;62.53;100936.94;5016573;28;48559;-60
2021/08/20 00:49:10;;;;;;;;;5.00;5.00;;;;;17.97;62.77;100940.72;5016562;28;45226;-60
2021/08/20 00:51:36;;;;;;;;;5.50;4.00;;;;;17.97;62.55;100939.91;5016332;28;45174;-61
2021/08/20 00:54:01;;;;;;;;;5.50;4.25;;;;;17.93;62.97;100937.59;5016768;28;45329;-60
2021/08/20 00:56:27;;;;;;;;;4.00;4.00;;;;;17.93;63.04;100942.91;5016559;28;46694;-61
2021/08/20 00:58:52;;;;;;;;;5.00;4.00;;;;;17.94;62.79;100941.91;5015515;28;72605;-60
2021/08/20 01:01:18;;;;;;;;;5.25;5.00;;;;;17.93;62.59;100928.78;5016235;28;46017;-61
2021/08/20 01:03:43;;;;;;;;;3.50;3.25;;;;;17.91;63.16;100925.47;5014275;28;65338;-61
2021/08/20 01:06:08;;;;;;;;;5.50;4.00;;;;;17.89;63.06;100925.66;5015442;28;70546;-61
2021/08/20 01:08:35;;;;;;;;;6.00;3.00;;;;;17.89;63.17;100928.31;5015030;28;45974;-60
2021/08/20 01:11:01;;;;;;;;;4.00;4.00;;;;;17.89;63.23;100928.31;5016482;28;45384;-59
2021/08/20 01:13:31;;;;;;;;;5.00;4.50;;;;;17.89;63.08;100920.34;5015251;28;45335;-61
2021/08/20 01:15:56;;;;;;;;;7.75;7.00;;;;;17.90;62.94;100919.31;5014994;28;47709;-61
2021/08/20 01:18:23;;;;;;;;;9.00;9.00;;;;;17.90;62.78;100918.47;5015191;28;75566;-60
2021/08/20 01:20:49;;;;;;;;;12.25;9.50;;;;;17.91;63.03;100922.78;5016095;28;45327;-60
2021/08/20 01:23:15;;;;;;;;;7.50;7.50;;;;;17.90;63.23;100921.16;5016309;28;45287;-61
2021/08/20 01:25:40;;;;;;;;;6.00;4.00;;;;;17.90;63.13;100916.66;5016741;28;45281;-61
2021/08/20 01:28:07;;;;;;;;;22.00;19.75;;;;;17.91;62.91;100920.13;5018590;28;75584;-60
2021/08/20 01:30:32;;;;;;;;;37.00;30.25;;;;;17.89;63.09;100922.16;5019726;28;45229;-60
2021/08/20 01:32:57;;;;;;;;;13.75;12.75;;;;;17.90;62.99;100919.31;5019164;28;61419;-60
2021/08/20 01:35:23;;;;;;;;;6.00;6.00;;;;;17.91;63.22;100915.66;5018982;28;66029;-61
2021/08/20 01:37:48;;;;;;;;;9.50;9.50;;;;;17.91;63.08;100914.81;5019328;28;49580;-61
2021/08/20 01:40:14;;;;;;;;;46.00;35.00;;;;;17.92;63.39;100916.47;5018383;28;73108;-61
2021/08/20 01:42:42;;;;;;;;;16.00;14.50;;;;;17.90;63.08;100919.31;5018491;28;68001;-61
2021/08/20 01:45:08;;;;;;;;;10.50;9.00;;;;;17.92;63.24;100919.13;5018706;28;63391;-61
2021/08/20 01:47:33;;;;;;;;;5.75;5.00;;;;;17.93;63.32;100915.47;5019157;28;46047;-61
2021/08/20 01:49:58;;;;;;;;;4.00;4.00;;;;;17.92;63.13;100909.34;5018479;28;68719;-61
2021/08/20 01:52:24;;;;;;;;;4.00;3.75;;;;;17.93;63.11;100910.16;5019583;28;45247;-61
2021/08/20 01:54:49;;;;;;;;;12.50;10.00;;;;;17.94;63.07;100906.50;5019378;28;45265;-60
2021/08/20 01:57:15;;;;;;;;;22.50;21.00;;;;;17.93;63.30;100903.03;5018313;28;68754;-61
2021/08/20 01:59:42;;;;;;;;;15.75;14.00;;;;;17.94;63.43;100906.50;5018372;28;70278;-60
2021/08/20 02:02:07;;;;;;;;;7.00;5.00;;;;;17.94;63.10;100901.19;5019283;28;45235;-60
2021/08/20 02:04:32;;;;;;;;;5.00;5.00;;;;;17.95;63.23;100902.84;5018345;28;65170;-61
2021/08/20 02:06:58;;;;;;;;;5.50;4.00;;;;;17.98;62.84;100904.34;5017886;28;48009;-60
2021/08/20 02:09:23;;;;;;;;;5.50;5.50;;;;;17.98;63.08;100897.16;5018469;28;56039;-62
2021/08/20 02:11:50;;;;;;;;;5.00;5.00;;;;;18.00;63.37;100892.53;5018345;28;64561;-61
2021/08/20 02:14:15;;;;;;;;;7.00;7.00;;;;;18.02;62.99;100893.19;5019155;28;45423;-60
2021/08/20 02:16:41;;;;;;;;;12.25;11.00;;;;;18.01;63.32;100886.22;5017804;28;75563;-61
2021/08/20 02:19:06;;;;;;;;;10.75;9.50;;;;;18.01;63.00;100888.06;5018061;28;64818;-60
2021/08/20 02:21:32;;;;;;;;;7.50;7.50;;;;;18.01;63.19;100890.72;5018279;28;62183;-61
2021/08/20 02:23:57;;;;;;;;;8.00;6.50;;;;;18.03;63.02;100888.69;5018357;28;62688;-61
2021/08/20 02:26:22;;;;;;;;;6.50;5.00;;;;;18.03;62.88;100892.19;5017715;28;71598;-60
2021/08/20 02:28:48;;;;;;;;;8.75;5.00;;;;;18.03;63.18;100889.53;5017920;28;70309;-60
2021/08/20 02:31:13;;;;;;;;;7.25;6.00;;;;;18.03;62.93;100892.19;5017833;28;68503;-61
2021/08/20 02:33:43;;;;;;;;;7.00;7.00;;;;;18.01;63.19;100893.38;5018851;28;45586;-61
2021/08/20 02:36:08;;;;;;;;;6.00;6.00;;;;;17.99;63.37;100892.69;5018494;28;46341;-61
2021/08/20 02:38:34;;;;;;;;;6.50;6.00;;;;;17.98;63.26;100896.34;5018432;28;45340;-60
2021/08/20 02:40:59;;;;;;;;;4.00;3.50;;;;;17.97;63.64;100898.19;5018375;28;46051;-60
2021/08/20 02:43:24;;;;;;;;;4.25;2.50;;;;;17.94;63.38;100896.72;5017830;28;64810;-61
2021/08/20 02:45:50;;;;;;;;;9.00;6.00;;;;;17.95;63.25;100895.72;5017454;28;73433;-60
2021/08/20 02:48:15;;;;;;;;;6.00;5.00;;;;;17.98;63.39;100893.69;5018453;28;45247;-61
2021/08/20 02:50:41;;;;;;;;;5.00;5.00;;;;;17.97;63.27;100898.19;5018675;28;45339;-60
2021/08/20 02:53:06;;;;;;;;;7.00;6.00;;;;;17.96;63.36;100896.53;5017684;28;66049;-61
2021/08/20 02:55:33;;;;;;;;;5.75;5.00;;;;;17.92;63.21;100890.75;5017347;28;71861;-60
2021/08/20 02:57:58;;;;;;;;;9.25;8.75;;;;;17.88;63.55;100889.44;5018044;28;45932;-61
2021/08/20 03:00:23;;;;;;;;;14.50;13.25;;;;;17.86;63.97;100888.78;5017236;28;67995;-61
2021/08/20 03:02:49;;;;;;;;;16.75;15.75;;;;;17.86;63.83;100894.09;5017070;28;69626;-61
2021/08/20 03:05:14;;;;;;;;;12.75;12.00;;;;;17.87;63.56;100895.75;5018066;28;46145;-60
2021/08/20 03:07:41;;;;;;;;;5.50;5.50;;;;;17.90;63.70;100894.56;5017249;28;70567;-61
2021/08/20 03:10:07;;;;;;;;;7.75;7.00;;;;;17.92;63.77;100897.88;5018461;28;45438;-61
2021/08/20 03:12:32;;;;;;;;;4.50;4.00;;;;;17.92;63.68;100898.72;5018194;28;45626;-61
2021/08/20 03:14:57;;;;;;;;;5.25;5.00;;;;;17.93;63.85;100894.22;5017304;28;65074;-61
2021/08/20 03:17:23;;;;;;;;;4.00;4.00;;;;;17.92;64.00;100888.09;5016075;28;66750;-60
2021/08/20 03:19:48;;;;;;;;;4.75;4.75;;;;;17.93;63.92;100897.72;5017074;28;69329;-61
2021/08/20 03:22:13;;;;;;;;;6.00;6.00;;;;;17.94;63.62;100896.72;5016991;28;68695;-61
2021/08/20 03:24:39;;;;;;;;;6.75;5.75;;;;;17.95;63.63;100893.06;5018053;28;46608;-61
2021/08/20 03:27:04;;;;;;;;;5.00;5.00;;;;;17.97;63.44;100890.19;5017958;28;45420;-61
2021/08/20 03:29:30;;;;;;;;;5.00;5.00;;;;;17.94;63.38;100886.06;5017192;28;63584;-61
2021/08/20 03:31:55;;;;;;;;;5.50;5.00;;;;;17.94;63.82;100882.56;5016921;28;67893;-60
2021/08/20 03:34:21;;;;;;;;;6.50;4.50;;;;;17.93;63.84;100888.91;5017898;28;45446;-61
2021/08/20 03:36:46;;;;;;;;;4.75;4.75;;;;;17.93;63.91;100884.41;5017871;28;45366;-60
2021/08/20 03:39:11;;;;;;;;;5.75;4.50;;;;;17.94;63.52;100883.41;5017415;28;54056;-61
2021/08/20 03:41:37;;;;;;;;;5.25;5.25;;;;;17.92;63.68;100885.41;5016909;28;65065;-61
2021/08/20 03:44:02;;;;;;;;;7.00;5.00;;;;;17.92;64.11;100889.91;5016702;28;71065;-60
2021/08/20 03:46:28;;;;;;;;;6.00;5.00;;;;;17.92;64.08;100893.41;5017267;28;51939;-60
2021/08/20 03:48:53;;;;;;;;;6.50;6.25;;;;;17.90;64.01;100890.09;5016938;28;45280;-60
2021/08/20 03:51:18;;;;;;;;;7.50;5.75;;;;;17.91;64.27;100899.72;5016784;28;68466;-60
2021/08/20 03:53:44;;;;;;;;;4.25;4.00;;;;;17.92;64.26;100898.72;5016424;28;74797;-60
2021/08/20 03:56:09;;;;;;;;;6.25;5.50;;;;;17.89;63.86;100896.41;5016369;28;70022;-61
2021/08/20 03:58:34;;;;;;;;;11.25;8.25;;;;;17.89;64.16;100904.38;5016725;28;65318;-61
2021/08/20 04:01:00;;;;;;;;;7.25;7.25;;;;;17.88;64.04;100902.72;5016472;28;65149;-60
2021/08/20 04:03:25;;;;;;;;;6.50;6.00;;;;;17.89;64.04;100904.38;5016037;28;75751;-61
2021/08/20 04:05:50;;;;;;;;;10.00;8.25;;;;;17.89;64.08;100907.03;5017194;28;47008;-61
2021/08/20 04:08:16;;;;;;;;;19.00;13.50;;;;;17.88;64.22;100905.38;5017134;28;45260;-60
2021/08/20 04:10:42;;;;;;;;;6.25;6.25;;;;;17.88;64.14;100908.03;5017454;28;45514;-61
2021/08/20 04:13:08;;;;;;;;;7.00;6.00;;;;;17.89;63.99;100909.69;5017053;28;45988;-61
2021/08/20 04:15:36;;;;;;;;;8.00;7.75;;;;;17.90;64.30;100911.34;5016958;28;45186;-60
2021/08/20 04:18:02;;;;;;;;;11.75;10.50;;;;;17.89;64.35;100912.34;5017280;28;45453;-60
2021/08/20 04:20:27;;;;;;;;;15.75;15.75;;;;;17.87;64.46;100911.69;5015863;28;55841;-61
2021/08/20 04:22:55;;;;;;;;;8.25;8.25;;;;;17.87;64.23;100914.34;5016003;28;74589;-60
2021/08/20 04:25:20;;;;;;;;;5.50;4.25;;;;;17.88;64.21;100918.69;5017044;28;45418;-60
2021/08/20 04:27:46;;;;;;;;;5.75;5.00;;;;;17.88;64.21;100921.34;5017156;28;45311;-61
2021/08/20 04:30:11;;;;;;;;;5.00;5.00;;;;;17.88;64.09;100916.00;5016112;28;70474;-59
2021/08/20 04:32:37;;;;;;;;;5.25;5.00;;;;;17.89;64.15;100917.69;5016811;28;45392;-61
2021/08/20 04:35:02;;;;;;;;;7.25;6.50;;;;;17.89;63.99;100925.66;5016606;28;48526;-62
2021/08/20 04:37:28;;;;;;;;;6.00;4.50;;;;;17.88;64.31;100929.31;5016906;28;45173;-62
2021/08/20 04:39:53;;;;;;;;;9.00;5.00;;;;;17.87;64.45;100927.66;5015896;28;68668;-62
2021/08/20 04:42:19;;;;;;;;;4.50;4.00;;;;;17.87;64.24;100927.66;5015542;28;74390;-62
2021/08/20 04:44:44;;;;;;;;;5.00;5.00;;;;;17.86;64.15;100926.00;5015897;28;67290;-59
2021/08/20 04:47:09;;;;;;;;;6.50;4.25;;;;;17.87;64.61;100921.50;5016977;28;45237;-61
2021/08/20 04:49:35;;;;;;;;;5.00;4.25;;;;;17.84;64.76;100920.03;5016696;28;45598;-61
2021/08/20 04:52:00;;;;;;;;;6.00;5.00;;;;;17.82;64.56;100924.69;5016428;28;49590;-62
2021/08/20 04:54:27;;;;;;;;;4.75;4.75;;;;;17.82;64.71;100924.69;5016508;28;45260;-61
2021/08/20 04:56:53;;;;;;;;;6.25;5.25;;;;;17.80;64.65;100932.00;5016667;28;45439;-61
2021/08/20 04:59:18;;;;;;;;;4.75;4.75;;;;;17.82;64.75;100926.50;5016104;28;57113;-61
2021/08/20 05:01:43;;;;;;;;;5.25;5.00;;;;;17.82;64.71;100930.00;5015771;28;59967;-60
2021/08/20 05:04:09;;;;;;;;;7.00;4.75;;;;;17.82;64.81;100934.47;5015339;28;70368;-61
2021/08/20 05:06:34;;;;;;;;;6.00;4.75;;;;;17.83;64.72;100936.97;4998356;28;45432;-61
2021/08/20 05:09:01;;;;;;;;;4.75;4.00;;;;;17.83;64.51;100934.31;5015416;28;70450;-61
2021/08/20 05:11:27;;;;;;;;;6.00;4.75;;;;;17.83;64.94;100930.81;5014219;28;45596;-60
2021/08/20 05:13:52;;;;;;;;;4.25;4.00;;;;;17.82;65.04;100934.47;5016484;28;45309;-61
2021/08/20 05:16:18;;;;;;;;;6.25;4.25;;;;;17.83;65.06;100930.81;5016353;28;45364;-61
2021/08/20 05:18:43;;;;;;;;;6.00;5.00;;;;;17.82;64.87;100929.16;5016073;28;49467;-58
2021/08/20 05:21:09;;;;;;;;;6.50;5.50;;;;;17.82;65.01;100940.63;5015442;28;68645;-61
2021/08/20 05:23:34;;;;;;;;;5.75;4.00;;;;;17.82;65.31;100945.09;5014903;28;45320;-61
2021/08/20 05:25:59;;;;;;;;;7.50;6.75;;;;;17.82;65.09;100945.09;5016237;28;45451;-61
2021/08/20 05:28:25;;;;;;;;;5.50;5.25;;;;;17.80;65.13;100943.44;5016247;28;45486;-61
2021/08/20 05:30:50;;;;;;;;;5.25;4.00;;;;;17.79;65.54;100946.28;5015985;28;45883;-61
2021/08/20 05:33:15;;;;;;;;;6.00;6.00;;;;;17.80;65.22;100947.94;5016048;28;45365;-62
2021/08/20 05:35:41;;;;;;;;;5.75;5.00;;;;;17.80;65.17;100942.63;5016096;28;45277;-60
2021/08/20 05:38:07;;;;;;;;;6.00;4.25;;;;;17.80;65.15;100950.59;5015934;28;45226;-60
2021/08/20 05:40:32;;;;;;;;;5.25;5.00;;;;;17.82;64.79;100945.09;5014573;28;75574;-60
2021/08/20 05:42:59;;;;;;;;;8.00;5.00;;;;;17.84;65.13;100951.06;5015423;28;60721;-60
2021/08/20 05:45:24;;;;;;;;;5.00;5.00;;;;;17.84;65.05;100949.25;5016124;28;45365;-61
2021/08/20 05:47:50;;;;;;;;;5.25;5.00;;;;;17.86;65.01;100952.56;5015040;28;66436;-60
2021/08/20 05:50:15;;;;;;;;;7.00;5.75;;;;;17.87;64.91;100953.38;5015219;28;64350;-61
2021/08/20 05:52:40;;;;;;;;;5.00;5.00;;;;;17.88;64.89;100955.88;5015763;28;45319;-60
2021/08/20 05:55:07;;;;;;;;;4.00;4.00;;;;;17.88;65.06;100947.91;5016028;28;45389;-60
2021/08/20 05:57:32;;;;;;;;;5.75;5.00;;;;;17.90;64.52;100948.56;5015823;28;45633;-61
2021/08/20 05:59:57;;;;;;;;;4.25;4.25;;;;;17.90;64.32;100945.91;5014694;28;72865;-61
2021/08/20 06:02:23;;;;;;;;;4.75;4.75;;;;;17.93;64.29;100948.22;5014328;28;73278;-60
2021/08/20 06:04:48;;;;;;;;;8.25;6.25;;;;;17.95;64.09;100954.19;5014706;28;69251;-61
2021/08/20 06:07:13;;;;;;;;;6.75;5.25;;;;;17.97;64.47;100948.69;5015724;28;45474;-61
2021/08/20 06:09:39;;;;;;;;;4.00;4.00;;;;;17.97;63.87;100948.69;5015537;28;45888;-60
2021/08/20 06:12:05;;;;;;;;;4.25;4.00;;;;;17.97;63.86;100954.00;5016560;28;45359;-61
2021/08/20 06:14:31;;;;;;;;;4.75;4.00;;;;;17.97;64.12;100955.84;5018942;28;45288;-61
2021/08/20 06:16:56;;;;;;;;;6.75;6.00;;;;;17.93;64.11;100950.88;5018660;28;54979;-60
2021/08/20 06:19:22;;;;;;;;;6.00;5.00;;;;;17.97;63.76;100954.00;5018713;28;48771;-61
2021/08/20 06:21:48;;;;;;;;;5.75;5.75;;;;;17.99;63.57;100960.00;5018876;28;45779;-60
2021/08/20 06:24:13;;;;;;;;;6.00;5.00;;;;;18.00;63.75;100963.50;5018788;28;45308;-61
2021/08/20 06:26:39;;;;;;;;;4.75;4.75;;;;;18.00;63.64;100966.97;5016699;28;66835;-61
2021/08/20 06:29:04;;;;;;;;;5.25;5.25;;;;;18.02;63.72;100966.78;5016601;28;72547;-61
2021/08/20 06:31:29;;;;;;;;;4.00;4.00;;;;;18.04;63.53;100965.63;5017419;28;72855;-60
2021/08/20 06:33:58;;;;;;;;;6.25;5.00;;;;;18.08;63.87;100960.78;5017708;28;68993;-60
2021/08/20 06:36:23;;;;;;;;;8.00;5.50;;;;;18.09;64.27;100957.13;5018723;28;45444;-61
2021/08/20 06:38:48;;;;;;;;;8.75;5.00;;;;;18.11;63.69;100960.44;5018467;28;48328;-61
2021/08/20 06:41:14;;;;;;;;;5.75;5.75;;;;;18.13;63.84;100969.06;5016334;28;67638;-61
2021/08/20 06:43:39;;;;;;;;;5.25;5.25;;;;;18.15;63.93;100967.06;5017748;28;63540;-59
2021/08/20 06:46:05;;;;;;;;;7.75;5.00;;;;;18.18;63.89;100965.91;5017617;28;65142;-59
2021/08/20 06:48:30;;;;;;;;;9.00;5.00;;;;;18.20;63.76;100970.03;5018114;28;49976;-61
2021/08/20 06:50:55;;;;;;;;;10.25;6.75;;;;;18.21;64.02;100971.69;5017293;28;72175;-61
2021/08/20 06:53:21;;;;;;;;;5.00;5.00;;;;;18.22;63.86;100970.66;5017575;28;64176;-61
2021/08/20 06:55:46;;;;;;;;;7.00;7.00;;;;;18.24;63.59;100967.84;5017673;28;58790;-60
2021/08/20 06:58:11;;;;;;;;;8.00;5.25;;;;;18.26;63.56;100965.00;5017125;28;75584;-61
2021/08/20 07:00:37;;;;;;;;;10.00;7.00;;;;;18.26;63.82;100967.66;5017252;28;68587;-60
2021/08/20 07:03:02;;;;;;;;;9.75;8.50;;;;;18.29;63.24;100969.97;5017557;28;57040;-60
2021/08/20 07:05:28;;;;;;;;;6.00;5.00;;;;;18.31;63.49;100965.31;5018127;28;45444;-61
2021/08/20 07:07:53;;;;;;;;;6.00;6.00;;;;;18.33;63.18;100969.44;5017678;28;46217;-62
2021/08/20 07:10:18;;;;;;;;;9.50;7.00;;;;;18.36;63.10;100969.06;5016866;28;73350;-59
2021/08/20 07:12:44;;;;;;;;;6.00;6.00;;;;;18.40;63.16;100969.56;5017208;28;68157;-61
2021/08/20 07:15:11;;;;;;;;;3.00;3.00;;;;;18.42;63.22;100969.38;5017195;28;62749;-61
2021/08/20 07:17:37;;;;;;;;;5.00;3.50;;;;;18.43;63.10;100969.22;5017603;28;45312;-61
2021/08/20 07:20:03;;;;;;;;;7.00;4.50;;;;;18.48;62.66;100972.19;5017591;28;45436;-60
2021/08/20 07:22:28;;;;;;;;;9.00;6.50;;;;;18.52;62.58;100980.63;5017518;28;45348;-61
2021/08/20 07:24:54;;;;;;;;;8.00;5.50;;;;;18.56;62.40;100981.91;5016456;28;45241;-61
2021/08/20 07:27:19;;;;;;;;;6.75;5.75;;;;;18.59;62.47;100991.38;5016168;28;73923;-61
2021/08/20 07:29:44;;;;;;;;;7.25;5.00;;;;;18.60;61.95;100983.22;5016975;28;65769;-61
2021/08/20 07:32:10;;;;;;;;;8.25;4.25;;;;;18.62;61.53;100988.34;5018033;28;45230;-60
2021/08/20 07:34:35;;;;;;;;;5.50;5.00;;;;;18.62;61.87;100988.34;5016596;28;71014;-61
2021/08/20 07:37:00;;;;;;;;;5.00;5.00;;;;;18.63;61.92;100985.53;5016977;28;66631;-60
2021/08/20 07:39:26;;;;;;;;;6.75;6.75;;;;;18.64;61.58;100984.53;5016572;28;72506;-61
2021/08/20 07:41:54;;;;;;;;;7.25;7.00;;;;;18.68;61.17;100993.81;5017809;28;45248;-61
2021/08/20 07:44:20;;;;;;;;;9.25;5.50;;;;;18.69;61.69;100994.63;5016655;28;69413;-60
2021/08/20 07:46:45;;;;;;;;;7.25;6.25;;;;;18.71;61.25;100997.13;5015447;28;69944;-61
2021/08/20 07:49:11;;;;;;;;;6.75;3.75;;;;;18.71;61.42;100997.13;5016895;28;64443;-61
2021/08/20 07:51:36;;;;;;;;;8.75;5.75;;;;;18.72;61.00;100994.25;5017418;28;47474;-61
2021/08/20 07:54:01;;;;;;;;;7.25;7.25;;;;;18.72;61.06;100999.59;5017414;28;45506;-60
2021/08/20 07:56:27;;;;;;;;;9.25;7.00;;;;;18.71;60.90;100992.59;5016295;28;69972;-61
2021/08/20 07:58:52;;;;;;;;;7.25;6.00;;;;;18.73;60.68;100995.09;5016457;28;70533;-60
2021/08/20 08:01:18;;;;;;;;;10.25;8.25;;;;;18.74;60.92;101002.91;5016733;28;61868;-61
2021/08/20 08:03:43;;;;;;;;;6.00;5.25;;;;;18.75;61.04;100998.41;5016146;28;69393;-61
2021/08/20 08:06:12;;;;;;;;;6.00;6.00;;;;;18.74;61.08;101005.56;5016995;28;50833;-60
2021/08/20 08:08:39;;;;;;;;;7.75;5.25;;;;;18.75;61.25;101007.22;5017277;28;45335;-60
2021/08/20 08:11:04;;;;;;;;;5.75;5.75;;;;;18.77;61.01;101001.72;5017469;28;45336;-60
2021/08/20 08:13:29;;;;;;;;;7.00;5.50;;;;;18.76;61.41;101011.53;5016447;28;63279;-60
2021/08/20 08:15:55;;;;;;;;;9.25;6.00;;;;;18.79;61.06;101016.50;5016825;28;45293;-61
2021/08/20 08:18:20;;;;;;;;;7.00;6.00;;;;;18.81;61.26;101017.16;5017065;28;45335;-61
2021/08/20 08:20:46;;;;;;;;;7.50;6.00;;;;;18.83;61.31;101007.16;5016958;28;45702;-61
2021/08/20 08:23:11;;;;;;;;;6.50;4.75;;;;;18.87;60.90;101012.94;5017102;28;45424;-61
2021/08/20 08:25:36;;;;;;;;;10.00;6.00;;;;;18.91;61.05;101010.75;5015868;28;69608;-61
2021/08/20 08:28:02;;;;;;;;;6.50;6.50;;;;;18.95;60.86;101010.22;5016103;28;66756;-61
2021/08/20 08:30:31;;;;;;;;;7.00;5.50;;;;;18.99;60.95;101010.72;5017014;28;45330;-60
2021/08/20 08:32:58;;;;;;;;;9.00;6.00;;;;;19.04;60.77;101018.16;5016877;28;45304;-61
2021/08/20 08:35:24;;;;;;;;;6.50;5.75;;;;;19.08;60.34;101012.28;5016178;28;46227;-60
2021/08/20 08:37:49;;;;;;;;;7.50;4.00;;;;;19.10;60.54;101017.44;5016756;28;45378;-60
2021/08/20 08:40:15;;;;;;;;;7.25;5.50;;;;;19.15;60.18;101022.22;5016821;28;45352;-61
2021/08/20 08:42:40;;;;;;;;;6.75;6.75;;;;;19.20;60.17;101030.50;5016641;28;45362;-61
2021/08/20 08:45:06;;;;;;;;;11.25;8.25;;;;;19.23;59.83;101019.47;5015240;28;45337;-61
2021/08/20 08:47:35;;;;;;;;;6.25;4.75;;;;;19.25;59.58;101030.78;5016610;28;45353;-61
2021/08/20 08:50:05;;;;;;;;;9.00;6.00;;;;;19.26;59.95;101024.44;5016931;28;45332;-62
2021/08/20 08:52:31;;;;;;;;;10.50;6.75;;;;;19.30;59.82;101032.91;5016681;28;46094;-60
2021/08/20 08:55:00;;;;;;;;;10.75;6.00;;;;;19.30;59.96;101035.59;5015176;28;46234;-61
2021/08/20 08:57:25;;;;;;;;;8.00;6.75;;;;;19.32;60.42;101031.72;5016595;28;45225;-61
2021/08/20 08:59:50;;;;;;;;;8.50;8.00;;;;;19.37;59.68;101029.34;5015648;28;64466;-60
2021/08/20 09:02:20;;;;;;;;;8.25;7.25;;;;;19.41;60.10;101021.78;5015570;28;67876;-61
2021/08/20 09:04:58;;;;;;;;;7.25;5.75;;;;;19.46;60.17;101021.25;5016269;28;46263;-61
2021/08/20 09:07:24;;;;;;;;;7.50;6.00;;;;;19.47;60.27;101022.91;5016148;28;45757;-60
2021/08/20 09:10:15;;;;;;;;;6.00;6.00;;;;;19.53;59.99;101023.00;5016483;28;45374;-60
2021/08/20 09:13:01;;;;;;;;;10.25;6.50;;;;;19.57;59.78;101023.47;5016360;28;45312;-60
2021/08/20 09:15:30;;;;;;;;;6.25;6.25;;;;;19.63;59.83;101016.56;5015514;28;45421;-61
2021/08/20 09:17:58;;;;;;;;;10.00;7.00;;;;;19.69;59.54;101021.97;5015656;28;45858;-61
2021/08/20 09:20:27;;;;;;;;;7.25;5.50;;;;;19.73;58.77;101023.25;5016126;28;45507;-61
2021/08/20 09:22:54;;;;;;;;;7.25;6.00;;;;;19.76;58.96;101024.75;5015860;28;45293;-61
2021/08/20 09:25:32;;;;;;;;;7.25;6.00;;;;;19.80;58.56;101025.19;5015888;28;45739;-61
2021/08/20 09:28:25;;;;;;;;;8.75;8.00;;;;;19.82;59.01;101020.50;5016113;28;45784;-61
2021/08/20 09:30:53;;;;;;;;;7.75;6.25;;;;;19.87;58.88;101020.78;5016113;28;45280;-59
2021/08/20 09:33:18;;;;;;;;;6.50;6.50;;;;;19.92;58.18;101017.56;5016120;28;45413;-61
2021/08/20 09:35:44;;;;;;;;;7.00;6.00;;;;;19.95;58.39;101025.19;5014718;28;72761;-61
2021/08/20 09:38:13;;;;;;;;;10.75;6.75;;;;;19.97;57.85;101017.84;5015881;28;45312;-60
2021/08/20 09:40:40;;;;;;;;;6.00;5.00;;;;;20.00;57.58;101020.97;5015502;28;45324;-61
2021/08/20 09:43:17;;;;;;;;;7.25;5.25;;;;;20.01;57.40;101006.63;4997575;28;45531;-60
2021/08/20 09:46:04;;;;;;;;;7.00;5.00;;;;;20.04;57.43;101018.75;5015783;28;45658;-61
2021/08/20 09:48:51;;;;;;;;;6.75;6.00;;;;;20.09;57.32;101015.53;5016640;28;45332;-60
2021/08/20 09:51:40;;;;;;;;;6.00;6.00;;;;;20.11;56.87;101013.50;5019471;28;45312;-61
2021/08/20 09:54:19;;;;;;;;;7.00;7.00;;;;;20.14;56.93;101021.94;5019457;28;45442;-60
2021/08/20 09:56:44;;;;;;;;;10.25;6.25;;;;;20.21;56.51;101014.00;5019036;28;46267;-60
2021/08/20 09:59:11;;;;;;;;;5.00;5.00;;;;;20.25;56.79;101020.63;5019253;28;45265;-61
2021/08/20 10:01:38;;;;;;;;;6.25;6.00;;;;;20.33;56.20;101027.72;5019194;28;45257;-60
2021/08/20 10:04:05;;;;;;;;;5.00;5.00;;;;;20.38;56.50;101019.97;5017821;28;45416;-60
2021/08/20 10:06:40;;;;;;;;;5.75;4.25;;;;;20.44;56.43;101024.53;5019016;28;45399;-61
2021/08/20 10:09:07;;;;;;;;;6.00;5.00;;;;;20.51;56.41;101016.59;5018065;28;45306;-60
2021/08/20 10:11:35;;;;;;;;;4.75;4.75;;;;;20.55;55.82;101023.22;5019388;28;45485;-61
2021/08/20 10:14:01;;;;;;;;;6.00;5.00;;;;;20.60;56.01;101022.63;5018728;28;45337;-60
2021/08/20 10:16:31;;;;;;;;;7.25;6.00;;;;;20.67;55.56;101025.34;5018783;28;45894;-61
2021/08/20 10:18:58;;;;;;;;;5.25;4.00;;;;;20.75;55.96;101022.56;5017881;28;45248;-61
2021/08/20 10:21:23;;;;;;;;;7.50;5.50;;;;;20.84;55.55;101024.09;5017795;28;45401;-61
2021/08/20 10:23:49;;;;;;;;;7.00;5.00;;;;;20.94;55.53;101020.28;5019068;28;45425;-61
2021/08/20 10:26:14;;;;;;;;;5.25;5.00;;;;;21.04;55.17;101021.59;5017727;28;75581;-61
2021/08/20 10:28:39;;;;;;;;;5.00;3.00;;;;;21.17;54.94;101028.91;5000213;28;62851;-61
2021/08/20 10:31:05;;;;;;;;;4.50;4.00;;;;;21.28;54.84;101021.34;5000183;28;66147;-61
2021/08/20 10:33:31;;;;;;;;;4.50;4.50;;;;;21.37;55.03;101025.53;5018081;28;56548;-61
2021/08/20 10:35:57;;;;;;;;;5.00;5.00;;;;;21.47;54.27;101027.84;5018680;28;45344;-61
2021/08/20 10:38:34;;;;;;;;;4.25;4.25;;;;;21.56;53.82;101025.84;5018669;28;45313;-61
2021/08/20 10:41:22;;;;;;;;;7.25;6.00;;;;;21.62;53.57;101022.41;5017312;28;45431;-61
2021/08/20 10:43:57;;;;;;;;;5.00;4.25;;;;;21.69;52.91;101022.44;5018590;28;45390;-61
2021/08/20 10:46:31;;;;;;;;;6.00;5.50;;;;;21.78;52.91;101022.06;5018423;28;45525;-61
2021/08/20 10:49:12;;;;;;;;;7.00;7.00;;;;;21.86;52.43;101022.94;5018492;28;45257;-61
2021/08/20 10:51:52;;;;;;;;;5.00;4.00;;;;;21.97;52.83;101025.03;5018422;28;45378;-60
2021/08/20 10:54:39;;;;;;;;;3.75;3.00;;;;;22.07;51.57;101019.31;5018670;28;45296;-61
2021/08/20 10:57:06;;;;;;;;;5.25;4.50;;;;;22.18;51.35;101016.06;4978332;28;47253;-61
2021/08/20 10:59:43;;;;;;;;;6.75;5.00;;;;;22.29;51.29;101019.97;5018168;28;45289;-61
2021/08/20 11:02:17;;;;;;;;;5.00;3.00;;;;;22.41;50.64;101017.56;5018281;28;45258;-61
2021/08/20 11:05:04;;;;;;;;;2.25;2.25;;;;;22.55;49.43;101023.78;5018358;28;45293;-60
2021/08/20 11:07:39;;;;;;;;;3.75;2.00;;;;;22.70;49.24;101014.75;5018064;28;45944;-61
2021/08/20 11:10:07;;;;;;;;;2.50;2.00;;;;;22.82;48.55;101013.06;5018149;28;45903;-61
2021/08/20 11:12:57;;;;;;;;;1.00;0.00;;;;;22.94;48.11;101016.78;5018438;28;45380;-61
2021/08/20 11:15:23;;;;;;;;;4.00;4.00;;;;;23.10;48.51;101009.38;5017185;28;45274;-62
2021/08/20 11:17:49;;;;;;;;;2.25;2.25;;;;;23.24;48.21;101010.19;5017968;28;45363;-60
2021/08/20 11:20:21;;;;;;;;;2.00;2.00;;;;;23.36;47.83;101007.69;5018065;28;45858;-61
2021/08/20 11:23:06;;;;;;;;;4.00;3.00;;;;;23.49;47.32;101012.22;5018008;28;45304;-62